Time;durP1;ratioP1;P1;durP2;ratioP2;P2;SDS_P1;SDS_P2;PMS_P1;PMS_P2;Temp;Humidity;BMP_temperature;BMP_pressure;BME280_temperature;BME280_humidity;BME280_pressure;Samples;Min_cycle;Max_cycle;Signal;HPM_P1;HPM_P2
2021/12/08 00:02:12;;;;;;;4.00;1.35;;;12.90;60.30;;;;;;4792513;30;20112;-73
2021/12/08 00:04:38;;;;;;;3.22;1.02;;;12.90;60.30;;;;;;4793051;30;20396;-73
2021/12/08 00:07:05;;;;;;;5.50;1.45;;;13.00;60.20;;;;;;4777009;30;20455;-74
2021/12/08 00:14:54;;;;;;;3.67;1.23;;;13.00;60.20;;;;;;4792752;30;20055;-73
2021/12/08 00:17:20;;;;;;;3.42;0.77;;;13.10;60.20;;;;;;4776896;30;20059;-74
2021/12/08 00:19:46;;;;;;;5.20;1.17;;;13.10;60.20;;;;;;4792580;30;20053;-74
2021/12/08 00:22:12;;;;;;;3.35;1.30;;;13.10;60.20;;;;;;4776784;30;20047;-74
2021/12/08 00:24:38;;;;;;;5.03;1.52;;;13.10;60.20;;;;;;4792082;30;20039;-74
2021/12/08 00:27:04;;;;;;;2.97;1.33;;;13.10;60.20;;;;;;4776784;30;20070;-74
2021/12/08 00:29:30;;;;;;;2.72;1.10;;;13.20;60.40;;;;;;4776991;30;20051;-75
2021/12/08 00:31:56;;;;;;;4.70;1.45;;;13.10;60.20;;;;;;4776264;30;20146;-73
2021/12/08 00:34:22;;;;;;;2.40;0.98;;;13.10;60.30;;;;;;4793118;30;20059;-73
2021/12/08 00:36:51;;;;;;;3.17;1.30;;;13.20;60.40;;;;;;4792187;30;20135;-74
2021/12/08 00:39:17;;;;;;;2.75;1.45;;;13.20;60.40;;;;;;4792202;30;20134;-74
2021/12/08 00:41:43;;;;;;;2.20;1.38;;;13.20;60.40;;;;;;4792389;30;20122;-74
2021/12/08 00:44:09;;;;;;;3.70;1.20;;;13.20;60.20;;;;;;4777137;30;20432;-73
2021/12/08 00:46:37;;;;;;;2.75;0.98;;;13.20;60.40;;;;;;4776884;30;20055;-74
2021/12/08 00:49:04;;;;;;;2.80;1.27;;;13.30;60.40;;;;;;4775131;30;20063;-73
2021/12/08 00:51:31;;;;;;;4.38;1.10;;;13.20;60.80;;;;;;4792354;30;20131;-75
2021/12/08 00:53:57;;;;;;;3.72;1.23;;;13.10;60.20;;;;;;4777009;30;20156;-73
2021/12/08 00:56:22;;;;;;;2.00;1.10;;;13.10;60.40;;;;;;4776082;30;20456;-74
2021/12/08 00:58:48;;;;;;;2.25;1.02;;;13.10;60.40;;;;;;4776000;30;20062;-74
2021/12/08 01:01:15;;;;;;;2.13;0.93;;;13.20;60.60;;;;;;4791810;30;20093;-73
2021/12/08 01:03:41;;;;;;;4.63;1.30;;;13.20;60.70;;;;;;4761968;30;20065;-73
2021/12/08 01:06:07;;;;;;;4.30;1.38;;;13.20;60.60;;;;;;4761414;30;20059;-73
2021/12/08 01:08:34;;;;;;;5.25;1.20;;;13.20;60.40;;;;;;4775912;30;20066;-75
2021/12/08 01:11:09;;;;;;;5.22;1.20;;;13.20;60.50;;;;;;4791272;30;20066;-74
2021/12/08 01:13:35;;;;;;;3.05;1.02;;;13.20;60.50;;;;;;4776220;30;20521;-73
2021/12/08 01:16:02;;;;;;;3.78;1.40;;;13.30;60.60;;;;;;4791665;30;20089;-73
2021/12/08 01:18:30;;;;;;;3.63;1.45;;;13.20;60.50;;;;;;4761298;30;20062;-75
2021/12/08 01:20:58;;;;;;;3.00;1.15;;;13.20;60.60;;;;;;4791434;30;20112;-74
2021/12/08 01:23:25;;;;;;;3.00;0.90;;;13.20;60.50;;;;;;4791187;30;20452;-73
2021/12/08 01:25:51;;;;;;;4.43;1.15;;;13.20;60.60;;;;;;4791633;30;20051;-75
2021/12/08 01:28:19;;;;;;;2.50;1.08;;;13.20;60.70;;;;;;4776543;30;20081;-73
2021/12/08 01:30:46;;;;;;;3.03;1.27;;;13.20;60.70;;;;;;4790906;30;20553;-74
2021/12/08 01:33:12;;;;;;;4.70;1.65;;;13.10;60.70;;;;;;4790626;30;20451;-75
2021/12/08 01:35:38;;;;;;;3.20;1.10;;;13.10;60.70;;;;;;4790758;30;20104;-73
2021/12/08 01:38:04;;;;;;;4.50;1.30;;;13.10;60.90;;;;;;4775676;30;20055;-73
2021/12/08 01:40:29;;;;;;;5.03;1.52;;;13.10;60.90;;;;;;4775470;30;20138;-74
2021/12/08 01:42:58;;;;;;;1.98;0.98;;;13.10;60.90;;;;;;4775047;30;20066;-74
2021/12/08 01:48:15;;;;;;;2.22;1.00;;;13.20;60.90;;;;;;4791066;30;20059;-73
2021/12/08 01:50:44;;;;;;;2.40;1.05;;;13.10;60.70;;;;;;4775539;30;20059;-73
2021/12/08 01:53:10;;;;;;;2.88;1.17;;;13.10;60.80;;;;;;4775433;30;20055;-74
2021/12/08 01:55:38;;;;;;;3.13;0.98;;;13.10;60.80;;;;;;4791472;30;20482;-74
2021/12/08 01:58:04;;;;;;;3.75;1.30;;;13.10;60.90;;;;;;4775239;30;20051;-73
2021/12/08 02:00:35;;;;;;;3.65;1.00;;;13.20;60.80;;;;;;4774309;30;20058;-73
2021/12/08 02:03:00;;;;;;;4.28;1.35;;;13.20;60.80;;;;;;4775111;30;20055;-74
2021/12/08 02:05:27;;;;;;;5.03;1.20;;;13.10;60.90;;;;;;4790807;30;20368;-74
2021/12/08 02:07:54;;;;;;;1.90;0.80;;;13.20;60.90;;;;;;4774907;30;20108;-73
2021/12/08 02:10:20;;;;;;;2.88;1.38;;;13.10;61.00;;;;;;4791059;30;20067;-72
2021/12/08 02:12:46;;;;;;;2.00;0.90;;;13.10;60.90;;;;;;4775662;30;20138;-75
2021/12/08 02:15:15;;;;;;;3.53;1.35;;;13.10;60.90;;;;;;4790911;30;20058;-75
2021/12/08 02:17:41;;;;;;;2.78;1.10;;;13.10;60.90;;;;;;4774881;30;20428;-74
2021/12/08 02:20:10;;;;;;;2.22;1.05;;;13.10;61.10;;;;;;4774950;30;20059;-74
2021/12/08 02:22:36;;;;;;;1.90;0.90;;;13.10;61.10;;;;;;4756933;30;20051;-74
2021/12/08 02:25:05;;;;;;;3.22;1.10;;;13.10;61.10;;;;;;4771525;30;20143;-74
2021/12/08 02:27:33;;;;;;;2.92;1.50;;;13.10;61.20;;;;;;4773026;30;20067;-75
2021/12/08 02:30:10;;;;;;;2.15;1.02;;;13.10;61.10;;;;;;4772578;30;20070;-74
2021/12/08 02:49:01;;;;;;;1.48;0.80;;;13.20;61.10;;;;;;4774232;30;20463;-73
2021/12/08 02:51:27;;;;;;;2.67;0.90;;;13.20;61.10;;;;;;4790294;30;20051;-73
2021/12/08 02:53:54;;;;;;;2.72;0.80;;;13.20;61.10;;;;;;4774871;30;20474;-74
2021/12/08 02:56:20;;;;;;;2.47;1.00;;;13.20;61.00;;;;;;4789874;30;20100;-74
2021/12/08 02:58:47;;;;;;;2.67;1.10;;;13.20;61.10;;;;;;4774102;30;20444;-73
2021/12/08 03:01:13;;;;;;;2.45;0.98;;;13.20;61.10;;;;;;4774483;30;20379;-74
2021/12/08 03:03:39;;;;;;;3.33;0.93;;;13.20;61.20;;;;;;4773815;30;20059;-73
2021/12/08 03:06:05;;;;;;;2.10;1.00;;;13.20;61.20;;;;;;4790298;30;20051;-73
2021/12/08 03:08:32;;;;;;;4.32;0.85;;;13.20;61.20;;;;;;4773686;30;20055;-73
2021/12/08 03:10:59;;;;;;;2.17;1.17;;;13.20;61.20;;;;;;4790002;30;20134;-74
2021/12/08 03:13:31;;;;;;;3.35;1.13;;;13.30;61.30;;;;;;4774150;30;20336;-74
2021/12/08 03:15:57;;;;;;;1.25;0.80;;;13.30;61.20;;;;;;4774340;30;20062;-74
2021/12/08 03:18:31;;;;;;;2.00;0.98;;;13.20;61.20;;;;;;4774185;30;20142;-73
2021/12/08 03:20:57;;;;;;;2.53;0.80;;;13.20;61.20;;;;;;4774148;30;20082;-73
2021/12/08 03:23:29;;;;;;;2.47;0.90;;;13.20;61.20;;;;;;4774266;30;20056;-75
2021/12/08 03:25:57;;;;;;;2.42;1.10;;;13.20;61.30;;;;;;4789642;30;20047;-72
2021/12/08 03:28:30;;;;;;;1.88;0.93;;;13.20;61.40;;;;;;4774203;30;20060;-74
2021/12/08 03:33:22;;;;;;;1.75;0.98;;;13.20;61.50;;;;;;4773356;30;20062;-73
2021/12/08 03:35:49;;;;;;;4.57;1.00;;;13.20;61.50;;;;;;4788832;30;20066;-74
2021/12/08 03:38:16;;;;;;;1.30;0.70;;;13.20;61.60;;;;;;4790121;30;20426;-73
2021/12/08 03:40:42;;;;;;;3.20;1.30;;;13.20;61.50;;;;;;4789643;30;20444;-74
2021/12/08 03:43:08;;;;;;;4.22;0.98;;;13.20;61.50;;;;;;4789789;30;20372;-74
2021/12/08 03:45:37;;;;;;;2.78;1.15;;;13.20;61.50;;;;;;4773868;30;20062;-73
2021/12/08 03:48:07;;;;;;;3.45;1.30;;;13.30;61.50;;;;;;4789676;30;20054;-73
2021/12/08 03:50:37;;;;;;;3.00;1.25;;;13.30;61.50;;;;;;4788818;30;20074;-74
2021/12/08 03:53:05;;;;;;;2.05;0.88;;;13.30;61.50;;;;;;4773657;30;20087;-74
2021/12/08 03:55:31;;;;;;;3.28;1.10;;;13.30;61.50;;;;;;4773732;30;20067;-73
2021/12/08 03:57:57;;;;;;;2.72;1.20;;;13.30;61.50;;;;;;4789568;30;20051;-73
2021/12/08 04:00:25;;;;;;;3.33;1.05;;;13.20;61.40;;;;;;4789364;30;20066;-73
2021/12/08 04:02:52;;;;;;;1.75;0.90;;;13.30;61.60;;;;;;4788392;30;20078;-74
2021/12/08 04:05:31;;;;;;;1.73;1.00;;;13.20;61.50;;;;;;4789255;30;20372;-75
2021/12/08 04:08:14;;;;;;;2.28;1.10;;;13.20;61.60;;;;;;4789660;30;20130;-72
2021/12/08 04:10:39;;;;;;;1.95;1.23;;;13.20;61.70;;;;;;4773765;30;20059;-73
2021/12/08 04:13:05;;;;;;;2.95;1.23;;;13.20;61.80;;;;;;4773889;30;20051;-72
2021/12/08 04:15:31;;;;;;;2.40;1.15;;;13.20;61.80;;;;;;4789408;30;20067;-74
2021/12/08 04:17:58;;;;;;;1.80;1.00;;;13.20;61.80;;;;;;4773615;30;20055;-73
2021/12/08 04:20:38;;;;;;;2.85;1.27;;;13.20;61.80;;;;;;4773900;30;20051;-74
2021/12/08 04:23:07;;;;;;;2.63;1.00;;;13.20;61.80;;;;;;4789340;29;20487;-73
2021/12/08 04:25:37;;;;;;;2.03;1.05;;;13.20;61.80;;;;;;4775914;30;20051;-74
2021/12/08 04:28:17;;;;;;;4.07;1.13;;;13.20;61.90;;;;;;4776810;30;20055;-74
2021/12/08 04:30:57;;;;;;;1.95;0.90;;;13.20;61.80;;;;;;4792342;30;20062;-73
2021/12/08 04:33:23;;;;;;;2.15;1.05;;;13.20;61.90;;;;;;4789719;30;20063;-74
2021/12/08 04:35:52;;;;;;;2.10;0.90;;;13.20;62.00;;;;;;4792741;30;20051;-74
2021/12/08 04:38:26;;;;;;;2.65;1.13;;;13.20;62.00;;;;;;4792370;30;20058;-74
2021/12/08 04:43:34;;;;;;;2.38;1.05;;;13.20;61.90;;;;;;4792516;30;20051;-74
2021/12/08 04:46:16;;;;;;;2.60;1.05;;;13.20;61.90;;;;;;4791720;30;20074;-74
2021/12/08 05:09:56;;;;;;;4.88;1.38;;;13.20;62.10;;;;;;4790835;30;20471;-71
2021/12/08 05:12:25;;;;;;;3.65;2.35;;;13.30;62.00;;;;;;4792267;30;20066;-72
2021/12/08 05:14:58;;;;;;;3.65;2.30;;;13.30;61.50;;;;;;4791930;30;20055;-71
2021/12/08 05:17:29;;;;;;;7.53;2.67;;;13.30;61.00;;;;;;4791491;30;20048;-70
2021/12/08 05:19:59;;;;;;;8.98;2.95;;;13.30;60.80;;;;;;4791477;30;20051;-69
2021/12/08 05:22:34;;;;;;;5.22;2.80;;;13.30;60.80;;;;;;4790619;29;20547;-71
2021/12/08 05:25:07;;;;;;;4.13;2.78;;;13.30;60.70;;;;;;4779734;30;20138;-71
2021/12/08 05:27:44;;;;;;;7.63;3.20;;;13.30;60.40;;;;;;4791601;30;20066;-71
2021/12/08 05:30:31;;;;;;;5.80;2.65;;;13.30;60.50;;;;;;4791548;30;20070;-69
2021/12/08 05:32:58;;;;;;;5.15;2.75;;;13.20;60.70;;;;;;4790917;30;20048;-76
2021/12/08 05:35:26;;;;;;;6.28;2.53;;;13.20;61.00;;;;;;4774895;30;20448;-75
2021/12/08 05:37:53;;;;;;;4.55;2.65;;;13.20;61.60;;;;;;4775141;30;20120;-76
2021/12/08 05:40:34;;;;;;;5.10;1.90;;;13.20;62.70;;;;;;4775135;30;20074;-74
2021/12/08 05:43:00;;;;;;;5.80;1.80;;;13.20;62.60;;;;;;4791921;30;20059;-75
2021/12/08 05:45:26;;;;;;;5.68;1.65;;;13.40;62.30;;;;;;4774782;30;20169;-78
2021/12/08 05:47:59;;;;;;;6.00;1.35;;;13.60;61.90;;;;;;4789980;30;20176;-73
2021/12/08 05:50:51;;;;;;;5.60;1.45;;;13.80;61.80;;;;;;4790970;30;20051;-74
2021/12/08 05:53:17;;;;;;;11.35;1.67;;;13.90;62.50;;;;;;4775252;30;20207;-74
2021/12/08 05:55:44;;;;;;;6.43;1.75;;;14.10;61.80;;;;;;4790828;30;20047;-73
2021/12/08 05:58:26;;;;;;;12.00;1.85;;;14.30;61.80;;;;;;4774518;30;20137;-76
2021/12/08 06:01:16;;;;;;;3.22;1.20;;;14.50;61.70;;;;;;4790247;30;20035;-74
2021/12/08 06:03:49;;;;;;;5.95;1.30;;;14.70;61.40;;;;;;4774466;30;20077;-77
2021/12/08 06:06:16;;;;;;;4.18;0.98;;;14.90;61.20;;;;;;4790655;30;20043;-75
2021/12/08 06:08:43;;;;;;;6.10;1.02;;;15.00;61.10;;;;;;4774611;30;20062;-76
2021/12/08 06:11:11;;;;;;;4.95;1.25;;;15.00;61.00;;;;;;4790484;30;20051;-74
2021/12/08 06:13:40;;;;;;;3.95;0.88;;;15.10;61.20;;;;;;4790925;30;20590;-74
2021/12/08 06:16:07;;;;;;;12.10;1.60;;;15.10;61.40;;;;;;4760054;30;20059;-74
2021/12/08 06:18:40;;;;;;;4.63;1.23;;;15.00;61.20;;;;;;4790482;30;20107;-74
2021/12/08 06:21:14;;;;;;;12.45;1.55;;;15.10;59.90;;;;;;4790393;30;20074;-74
2021/12/08 06:23:40;;;;;;;;;;;15.10;62.20;;;;;;4790559;30;20046;-79
2021/12/08 06:26:07;;;;;;;20.20;2.25;;;15.20;62.30;;;;;;4759373;30;20349;-77
2021/12/08 06:28:34;;;;;;;11.18;1.75;;;15.30;62.40;;;;;;4788880;30;20035;-79
2021/12/08 06:31:00;;;;;;;14.45;2.03;;;15.40;62.40;;;;;;4789059;30;20051;-72
2021/12/08 06:37:41;;;;;;;9.27;1.80;;;15.50;62.30;;;;;;4772231;30;20058;-81
2021/12/08 06:40:30;;;;;;;10.40;1.45;;;15.50;62.40;;;;;;4771445;30;20083;-76
2021/12/08 06:43:03;;;;;;;10.48;1.92;;;15.60;62.30;;;;;;4771184;30;20131;-76
2021/12/08 06:45:40;;;;;;;9.17;1.57;;;15.70;62.30;;;;;;4771251;30;20043;-78
2021/12/08 06:48:10;;;;;;;7.10;1.20;;;15.80;62.40;;;;;;4764425;30;20047;-77
2021/12/08 06:50:50;;;;;;;12.55;1.52;;;15.90;62.10;;;;;;4789750;30;20079;-77
2021/12/08 06:53:16;;;;;;;12.70;1.42;;;15.90;61.90;;;;;;4788903;30;20051;-75
2021/12/08 06:55:57;;;;;;;11.15;1.77;;;16.00;62.00;;;;;;4774444;30;20062;-76
2021/12/08 06:58:28;;;;;;;10.00;1.48;;;16.10;62.30;;;;;;4759400;30;20137;-76
2021/12/08 07:01:27;;;;;;;5.38;1.40;;;16.10;62.40;;;;;;4789264;30;20131;-76
2021/12/08 07:28:08;;;;;;;12.43;2.47;;;16.50;62.30;;;;;;4908559;24;20396;-79
2021/12/08 07:37:16;;;;;;;18.65;2.67;;;16.50;62.50;;;;;;5154502;24;20077;-77
2021/12/08 07:39:52;;;;;;;24.40;2.05;;;16.40;62.40;;;;;;4791878;29;20533;-74
2021/12/08 07:42:44;;;;;;;10.65;2.33;;;16.50;62.50;;;;;;4807890;29;20046;-77
2021/12/08 07:45:44;;;;;;;20.67;2.50;;;16.50;62.50;;;;;;4822881;29;20528;-74
2021/12/08 07:48:21;;;;;;;8.75;2.00;;;16.50;62.40;;;;;;4821643;29;20482;-76
2021/12/08 07:51:00;;;;;;;16.65;2.75;;;16.50;62.40;;;;;;4818039;29;20058;-75
2021/12/08 07:53:28;;;;;;;22.25;2.45;;;16.50;63.10;;;;;;4825798;29;20057;-73
2021/12/08 07:56:04;;;;;;;20.70;3.42;;;16.50;63.60;;;;;;4824137;29;20497;-75
2021/12/08 07:58:34;;;;;;;16.27;2.70;;;16.50;63.80;;;;;;4824856;29;20051;-74
2021/12/08 08:01:06;;;;;;;18.20;3.45;;;16.60;63.90;;;;;;4827610;29;20491;-75
2021/12/08 08:03:34;;;;;;;12.25;2.47;;;16.60;63.90;;;;;;4825720;29;20065;-73
2021/12/08 08:06:04;;;;;;;19.88;2.30;;;16.60;64.00;;;;;;4827613;29;20463;-74
2021/12/08 08:08:34;;;;;;;19.02;2.72;;;16.60;64.30;;;;;;4828624;29;20168;-78
2021/12/08 08:11:07;;;;;;;16.75;2.60;;;16.60;64.10;;;;;;4827705;29;20043;-74
2021/12/08 08:13:34;;;;;;;16.90;2.80;;;16.60;64.10;;;;;;4827721;29;20095;-75
2021/12/08 08:16:06;;;;;;;17.35;2.50;;;16.60;63.90;;;;;;4828111;29;20355;-73
2021/12/08 08:18:39;;;;;;;12.82;2.30;;;16.60;63.90;;;;;;4822203;29;20054;-77
2021/12/08 08:21:12;;;;;;;14.60;2.70;;;16.60;64.00;;;;;;4817631;29;20375;-75
2021/12/08 08:23:38;;;;;;;21.50;2.90;;;16.60;64.00;;;;;;4828427;29;20371;-75
2021/12/08 08:26:08;;;;;;;20.30;2.45;;;16.40;62.90;;;;;;4827882;29;20053;-74
2021/12/08 08:28:35;;;;;;;19.25;2.45;;;16.50;63.90;;;;;;4811412;29;20062;-77
2021/12/08 08:31:13;;;;;;;15.55;1.40;;;16.50;63.70;;;;;;4839891;29;20390;-75
2021/12/08 08:33:56;;;;;;;16.42;2.42;;;16.50;63.80;;;;;;4826746;29;20479;-80
2021/12/08 08:36:26;;;;;;;22.50;2.28;;;16.30;63.20;;;;;;4809233;29;20055;-74
2021/12/08 08:39:00;;;;;;;14.27;2.45;;;16.40;63.60;;;;;;4810675;29;20078;-74
2021/12/08 08:41:40;;;;;;;11.50;1.73;;;16.50;63.80;;;;;;4827004;29;20065;-75
2021/12/08 08:44:17;;;;;;;8.38;1.38;;;16.60;63.90;;;;;;4828230;29;20055;-74
2021/12/08 08:46:48;;;;;;;9.95;1.90;;;16.00;59.80;;;;;;4828238;29;20062;-76
2021/12/08 08:49:24;;;;;;;13.38;2.38;;;16.10;63.80;;;;;;4826812;29;20058;-77
2021/12/08 08:52:02;;;;;;;6.72;1.60;;;16.30;64.30;;;;;;4826792;29;20050;-76
2021/12/08 08:54:42;;;;;;;10.82;1.80;;;16.40;64.30;;;;;;4828221;29;20138;-76
2021/12/08 08:57:18;;;;;;;8.57;1.55;;;16.50;65.70;;;;;;4827494;29;20089;-74
2021/12/08 08:59:52;;;;;;;10.68;1.45;;;16.50;64.90;;;;;;4826156;29;20421;-76
2021/12/08 09:02:23;;;;;;;6.22;1.67;;;16.60;63.30;;;;;;4815936;29;20055;-74
2021/12/08 09:04:58;;;;;;;9.63;2.17;;;16.70;62.60;;;;;;4828232;29;20431;-75
2021/12/08 09:07:39;;;;;;;6.47;1.40;;;16.70;61.80;;;;;;4826438;29;20474;-77
2021/12/08 09:10:14;;;;;;;6.03;1.42;;;16.70;60.10;;;;;;4811536;29;20056;-76
2021/12/08 09:13:02;;;;;;;5.25;1.20;;;16.80;60.00;;;;;;4826654;29;20068;-76
2021/12/08 09:15:38;;;;;;;8.13;1.38;;;16.80;59.60;;;;;;4826549;29;20100;-76
2021/12/08 09:18:10;;;;;;;9.10;1.65;;;16.80;60.40;;;;;;4826597;29;20046;-77
2021/12/08 09:20:59;;;;;;;8.50;1.40;;;16.80;60.00;;;;;;4827403;29;20042;-76
2021/12/08 09:23:42;;;;;;;4.45;0.90;;;16.90;60.10;;;;;;4796939;29;20085;-77
2021/12/08 09:26:13;;;;;;;4.43;1.10;;;16.90;60.40;;;;;;4808287;29;20125;-71
2021/12/08 09:29:11;;;;;;;5.20;1.00;;;16.90;60.50;;;;;;4825103;29;20328;-76
2021/12/08 09:31:42;;;;;;;4.28;1.17;;;17.00;60.60;;;;;;4827206;29;20395;-76
2021/12/08 09:34:20;;;;;;;4.10;0.90;;;17.00;60.70;;;;;;4797547;29;20047;-81
2021/12/08 09:36:51;;;;;;;5.53;1.00;;;16.90;60.80;;;;;;4811016;29;20070;-75
2021/12/08 09:39:25;;;;;;;3.85;0.85;;;16.90;61.10;;;;;;4826416;29;20442;-77
2021/12/08 09:42:14;;;;;;;9.38;2.53;;;16.90;61.00;;;;;;4810871;29;20050;-78
2021/12/08 09:44:47;;;;;;;8.30;1.30;;;16.90;61.20;;;;;;4817201;29;20054;-77
2021/12/08 09:47:16;;;;;;;8.63;1.48;;;16.90;61.30;;;;;;4811560;29;20069;-79
2021/12/08 09:49:47;;;;;;;6.57;1.60;;;16.90;61.40;;;;;;4826588;29;20069;-77
2021/12/08 09:52:15;;;;;;;10.57;1.77;;;16.90;61.00;;;;;;4825820;29;20057;-77
2021/12/08 09:54:41;;;;;;;6.53;1.52;;;16.80;61.10;;;;;;4826083;29;20478;-77
2021/12/08 09:57:12;;;;;;;7.30;1.55;;;16.80;61.30;;;;;;4826533;29;20078;-73
2021/12/08 09:59:45;;;;;;;7.80;1.63;;;16.80;61.60;;;;;;4826016;29;20061;-79
2021/12/08 10:02:13;;;;;;;6.65;1.55;;;16.40;61.00;;;;;;4822599;29;20054;-80
2021/12/08 10:04:38;;;;;;;7.45;1.55;;;16.40;61.50;;;;;;4811238;29;20057;-76
2021/12/08 10:07:05;;;;;;;12.30;1.65;;;16.50;61.90;;;;;;4811045;29;20050;-78
2021/12/08 10:09:34;;;;;;;13.02;1.55;;;16.50;61.90;;;;;;4827007;29;20450;-78
2021/12/08 10:12:02;;;;;;;10.23;1.65;;;16.50;61.40;;;;;;4827141;29;20366;-76
2021/12/08 10:14:31;;;;;;;8.85;1.30;;;16.50;61.10;;;;;;4826263;29;20058;-76
2021/12/08 10:16:56;;;;;;;3.90;1.60;;;16.50;60.70;;;;;;4826578;29;20481;-76
2021/12/08 10:19:23;;;;;;;6.40;1.90;;;16.50;59.90;;;;;;4826541;29;20054;-76
2021/12/08 10:21:51;;;;;;;8.63;2.03;;;16.20;58.00;;;;;;4840857;29;20050;-78
2021/12/08 10:24:19;;;;;;;7.90;1.48;;;16.20;57.90;;;;;;4830565;29;20042;-78
2021/12/08 10:26:46;;;;;;;8.35;1.60;;;16.20;58.40;;;;;;4829358;29;20061;-78
2021/12/08 10:29:13;;;;;;;6.70;1.63;;;16.10;57.70;;;;;;4829118;29;20058;-78
2021/12/08 10:31:41;;;;;;;7.03;1.38;;;16.10;57.80;;;;;;4859598;29;20054;-78
2021/12/08 10:36:47;;;;;;;6.15;1.48;;;16.00;57.70;;;;;;4843227;29;20058;-79
2021/12/08 10:39:15;;;;;;;6.25;1.42;;;16.00;58.10;;;;;;4843683;29;20066;-78
2021/12/08 10:42:14;;;;;;;5.32;1.50;;;16.00;58.30;;;;;;4841560;29;20286;-79
2021/12/08 10:44:57;;;;;;;7.25;1.80;;;16.00;58.10;;;;;;4826583;29;20058;-79
2021/12/08 10:47:27;;;;;;;5.95;1.65;;;15.90;58.50;;;;;;4825858;29;20054;-79
2021/12/08 10:55:19;;;;;;;5.65;1.30;;;15.80;58.90;;;;;;4825439;29;20050;-77
2021/12/08 10:57:53;;;;;;;4.85;1.58;;;15.80;59.00;;;;;;4825616;29;20050;-80
2021/12/08 11:00:31;;;;;;;4.65;1.13;;;15.70;59.10;;;;;;4825729;29;20050;-78
2021/12/08 11:03:08;;;;;;;5.40;1.33;;;15.70;59.20;;;;;;4825315;29;20065;-79
2021/12/08 11:05:42;;;;;;;4.50;1.20;;;15.60;59.30;;;;;;4825467;29;20123;-78
2021/12/08 11:08:17;;;;;;;;;;;15.60;59.40;;;;;;4825615;29;20043;-78
2021/12/08 11:11:04;;;;;;;4.10;1.30;;;15.60;59.40;;;;;;4826014;29;19974;-78
2021/12/08 11:13:34;;;;;;;4.28;1.40;;;15.60;59.60;;;;;;4825436;29;20050;-79
2021/12/08 11:16:05;;;;;;;4.50;1.20;;;15.50;59.80;;;;;;4825420;29;20463;-79
2021/12/08 11:18:32;;;;;;;3.03;0.80;;;15.50;59.90;;;;;;4824954;29;20054;-80
2021/12/08 11:21:05;;;;;;;6.07;1.58;;;15.50;60.00;;;;;;4825430;29;20119;-78
2021/12/08 11:23:47;;;;;;;4.38;1.25;;;15.50;60.00;;;;;;4825933;29;20058;-79
2021/12/08 11:26:37;;;;;;;3.88;1.20;;;15.40;60.00;;;;;;4825050;29;20086;-78
2021/12/08 11:29:05;;;;;;;4.50;1.33;;;15.40;60.10;;;;;;4825468;29;20554;-78
2021/12/08 11:31:39;;;;;;;3.55;0.90;;;15.40;60.20;;;;;;4809999;29;20061;-79
2021/12/08 11:34:12;;;;;;;5.13;1.10;;;15.40;60.30;;;;;;4827612;29;20149;-77
2021/12/08 11:36:39;;;;;;;5.97;1.13;;;15.40;60.40;;;;;;4828228;29;20073;-79
2021/12/08 11:39:10;;;;;;;3.28;1.02;;;15.40;60.50;;;;;;4828822;29;20367;-78
2021/12/08 11:41:46;;;;;;;3.85;1.00;;;15.40;60.50;;;;;;4828776;29;20363;-79
2021/12/08 11:44:27;;;;;;;3.60;1.10;;;15.40;60.50;;;;;;4829416;29;20054;-78
2021/12/08 11:46:56;;;;;;;2.38;0.77;;;15.40;60.60;;;;;;4828552;29;20062;-77
2021/12/08 11:49:23;;;;;;;4.05;1.25;;;15.40;60.80;;;;;;4828513;29;20054;-79
2021/12/08 11:51:58;;;;;;;3.92;1.52;;;15.40;60.80;;;;;;4829397;29;20091;-78
2021/12/08 11:54:28;;;;;;;3.47;1.20;;;15.30;60.70;;;;;;4828054;29;20382;-81
2021/12/08 11:57:11;;;;;;;4.22;1.00;;;15.30;60.70;;;;;;4828670;29;20486;-78
2021/12/08 11:59:53;;;;;;;3.80;1.10;;;15.30;60.70;;;;;;4828337;29;20120;-78
2021/12/08 12:02:21;;;;;;;3.63;1.00;;;15.30;60.80;;;;;;4827818;29;20127;-77
2021/12/08 12:04:48;;;;;;;3.60;1.15;;;15.30;60.90;;;;;;4828828;29;20069;-78
2021/12/08 12:07:15;;;;;;;2.88;1.08;;;15.30;60.90;;;;;;4827882;29;20058;-79
2021/12/08 12:09:42;;;;;;;3.38;1.10;;;15.20;60.90;;;;;;4828587;29;20058;-79
2021/12/08 12:12:08;;;;;;;3.53;1.23;;;15.20;60.80;;;;;;4828788;29;20054;-78
2021/12/08 12:14:34;;;;;;;2.03;0.80;;;15.30;60.80;;;;;;4828867;29;20050;-78
2021/12/08 12:17:00;;;;;;;3.58;1.30;;;15.20;60.80;;;;;;4828957;29;20211;-78
2021/12/08 12:19:30;;;;;;;3.65;1.20;;;15.20;60.80;;;;;;4828765;29;20129;-78
2021/12/08 12:22:04;;;;;;;2.40;0.95;;;15.20;60.90;;;;;;4828318;29;20133;-79
2021/12/08 12:24:53;;;;;;;2.88;1.10;;;15.20;60.80;;;;;;4828357;29;20050;-79
2021/12/08 12:27:31;;;;;;;4.82;1.35;;;15.20;60.80;;;;;;4827683;29;20451;-79
2021/12/08 12:30:24;;;;;;;1.98;0.60;;;15.20;60.90;;;;;;4812732;29;20490;-77
2021/12/08 12:32:53;;;;;;;3.50;1.02;;;15.20;60.90;;;;;;4827088;29;20419;-77
2021/12/08 12:35:27;;;;;;;5.47;1.30;;;15.10;60.90;;;;;;4828466;29;20062;-80
2021/12/08 12:38:31;;;;;;;2.60;1.13;;;15.10;61.40;;;;;;4846330;29;20053;-78
2021/12/08 12:40:58;;;;;;;3.03;1.07;;;15.10;60.80;;;;;;4846817;29;20141;-78
2021/12/08 12:43:29;;;;;;;3.50;0.90;;;15.10;61.00;;;;;;4831115;29;20054;-79
2021/12/08 12:46:07;;;;;;;5.13;0.98;;;15.10;61.00;;;;;;4814452;29;20050;-78
2021/12/08 12:48:37;;;;;;;3.58;1.08;;;15.10;61.00;;;;;;4830414;29;20127;-78
2021/12/08 12:51:07;;;;;;;2.30;0.70;;;15.10;61.00;;;;;;4830612;29;20054;-79
2021/12/08 12:53:51;;;;;;;2.42;1.05;;;15.10;61.00;;;;;;4830333;29;20061;-80
2021/12/08 12:56:37;;;;;;;3.72;1.10;;;15.10;61.00;;;;;;4831130;29;20058;-76
2021/12/08 12:59:17;;;;;;;2.55;0.90;;;15.00;60.80;;;;;;4846418;29;20560;-78
2021/12/08 13:01:46;;;;;;;3.28;0.98;;;15.00;60.90;;;;;;4846536;29;20041;-78
2021/12/08 13:04:21;;;;;;;3.28;0.90;;;15.00;60.90;;;;;;4830008;29;20102;-79
2021/12/08 13:07:02;;;;;;;2.30;0.93;;;15.00;60.80;;;;;;4846273;29;20042;-78
2021/12/08 13:09:40;;;;;;;3.00;0.98;;;15.00;60.80;;;;;;4846542;29;20358;-80
2021/12/08 13:12:12;;;;;;;4.07;1.13;;;15.00;60.90;;;;;;4846125;29;20062;-77
2021/12/08 13:14:40;;;;;;;2.13;1.05;;;15.00;60.90;;;;;;4829962;29;20124;-77
2021/12/08 13:17:08;;;;;;;1.52;0.40;;;14.90;60.90;;;;;;4830128;29;20054;-79
2021/12/08 13:19:47;;;;;;;3.20;0.88;;;15.00;61.00;;;;;;4830188;29;20049;-78
2021/12/08 13:22:50;;;;;;;2.95;0.70;;;15.00;60.90;;;;;;4829910;29;20061;-78
2021/12/08 13:28:14;;;;;;;;;;;14.90;60.90;;;;;;4846170;29;20049;-79
2021/12/08 13:31:06;;;;;;;3.30;0.95;;;14.90;60.80;;;;;;4830557;29;20453;-79
2021/12/08 13:33:37;;;;;;;1.90;0.95;;;14.90;60.90;;;;;;4827570;29;20042;-78
2021/12/08 13:36:31;;;;;;;2.95;0.80;;;14.90;61.00;;;;;;4811246;29;20119;-78
2021/12/08 13:38:56;;;;;;;2.50;0.70;;;14.90;60.90;;;;;;4818353;29;20054;-78
2021/12/08 13:41:23;;;;;;;2.13;0.75;;;14.90;61.10;;;;;;4826536;29;20062;-78
2021/12/08 13:43:50;;;;;;;0.95;0.60;;;14.90;61.20;;;;;;4827696;29;20137;-78
2021/12/08 13:46:39;;;;;;;3.15;0.73;;;14.80;61.10;;;;;;4796423;29;20058;-79
2021/12/08 13:49:26;;;;;;;2.75;0.65;;;14.80;60.90;;;;;;4811272;29;20054;-79
2021/12/08 13:52:07;;;;;;;2.20;0.63;;;14.80;60.90;;;;;;4796420;29;20065;-78
2021/12/08 13:54:43;;;;;;;3.45;0.70;;;14.80;60.80;;;;;;4827595;29;20073;-80
2021/12/08 13:57:32;;;;;;;2.88;0.70;;;14.80;60.90;;;;;;4811082;29;20085;-78
2021/12/08 14:00:07;;;;;;;1.75;0.77;;;14.80;60.80;;;;;;4811172;29;20122;-79
2021/12/08 14:02:44;;;;;;;2.22;0.95;;;14.80;60.90;;;;;;4825257;29;20065;-79
2021/12/08 14:05:12;;;;;;;2.65;0.90;;;14.80;60.90;;;;;;4829279;29;20053;-78
2021/12/08 14:07:42;;;;;;;2.00;0.68;;;14.80;61.00;;;;;;4829293;29;20481;-78
2021/12/08 14:10:15;;;;;;;2.67;0.80;;;14.70;61.00;;;;;;4814060;29;20057;-80
2021/12/08 14:12:42;;;;;;;4.55;0.80;;;14.80;61.10;;;;;;4829945;29;20145;-79
2021/12/08 14:15:12;;;;;;;1.55;0.45;;;14.70;61.00;;;;;;4829877;29;20049;-79
2021/12/08 14:17:38;;;;;;;1.63;0.77;;;14.70;61.10;;;;;;4813706;29;20058;-79
2021/12/08 14:20:05;;;;;;;2.45;0.98;;;14.70;61.30;;;;;;4845148;29;20366;-79
2021/12/08 14:22:39;;;;;;;2.35;0.75;;;14.70;61.20;;;;;;4845692;29;20179;-78
2021/12/08 14:25:06;;;;;;;3.85;0.90;;;14.70;61.20;;;;;;4829660;29;20062;-79
2021/12/08 14:27:32;;;;;;;2.15;0.90;;;14.70;61.30;;;;;;4843825;29;20053;-78
2021/12/08 14:29:58;;;;;;;4.45;1.08;;;14.70;61.40;;;;;;4828972;29;20054;-79
2021/12/08 14:32:24;;;;;;;2.83;0.82;;;14.70;61.40;;;;;;4845125;29;20374;-79
2021/12/08 14:34:52;;;;;;;2.90;0.88;;;14.60;61.40;;;;;;4829007;29;20053;-78
2021/12/08 14:37:19;;;;;;;2.20;0.70;;;14.70;61.40;;;;;;4844144;29;20141;-78
2021/12/08 14:39:49;;;;;;;2.47;0.80;;;14.60;61.40;;;;;;4844960;29;20054;-78
2021/12/08 14:42:29;;;;;;;4.07;0.77;;;14.60;61.50;;;;;;4844471;29;20054;-79
2021/12/08 14:45:03;;;;;;;3.10;1.08;;;14.60;61.40;;;;;;4844758;29;20126;-79
2021/12/08 14:47:34;;;;;;;4.20;0.68;;;14.60;61.50;;;;;;4844773;29;20122;-79